KMLS/MLS METAR and TAF weather

Enter ICAO airport designator
Station Type Date Time Source
KMLS METAR 2019/04/25 07:53 UTC NOAA

KMLS 250753Z AUTO 29008KT 10SM CLR 05/04 A3003 RMK AO2 SLP170 T00500039


Station Type Date Time Source
KMLS Decoded METAR 2019/04/25 07:53 UTC NOAA

MILES CITY WILEY FIELD, MT, United States (KMLS) 46-26N 105-53W 801M
Apr 25, 2019 - 03:53 AM EDT / 2019.04.25 0753 UTC
Wind: from the WNW (290 degrees) at 9 MPH (8 KT):0
Visibility: 10 mile(s):0
Sky conditions: clear
Temperature: 41.0 F (5.0 C)
Dew Point: 39.0 F (3.9 C)
Relative Humidity: 92%
Pressure (altimeter): 30.03 in. Hg (1016 hPa)
ob: KMLS 250753Z AUTO 29008KT 10SM CLR 05/04 A3003 RMK AO2 SLP170 T00500039
cycle: 8

Station Type Date Time Source
KMLS TAF 2019/04/25 06:34 UTC NOAA

TAF KMLS 250531Z 2506/2606 29008KT P6SM FEW100
FM251000 33015KT P6SM FEW040 BKN060
FM251400 35014G20KT P6SM VCSH FEW040 BKN060
FM260000 06005KT P6SM SCT250

Example: see airport list